sensor_id;sensor_type;location;lat;lon;timestamp;pressure;altitude;pressure_sealevel;temperature;humidity
63901;BME280;50538;53.482;10.294;2022-08-02T00:03:34;101441.44;;;13.56;73.03
63901;BME280;50538;53.482;10.294;2022-08-02T00:13:34;101440.63;;;13.39;73.06
63901;BME280;50538;53.482;10.294;2022-08-02T00:23:34;101444.97;;;13.24;73.92
63901;BME280;50538;53.482;10.294;2022-08-02T00:33:35;101435.59;;;13.12;73.23
63901;BME280;50538;53.482;10.294;2022-08-02T00:43:35;101438.75;;;12.99;73.93
63901;BME280;50538;53.482;10.294;2022-08-02T00:53:36;101442.41;;;12.82;74.56
63901;BME280;50538;53.482;10.294;2022-08-02T01:03:36;101443.69;;;12.62;75.45
63901;BME280;50538;53.482;10.294;2022-08-02T01:13:36;101461.09;;;12.48;75.26
63901;BME280;50538;53.482;10.294;2022-08-02T01:24:16;101473.16;;;12.34;75.32
63901;BME280;50538;53.482;10.294;2022-08-02T01:34:23;101473.47;;;12.23;75.28
63901;BME280;50538;53.482;10.294;2022-08-02T01:44:32;101472.69;;;12.05;75.93
63901;BME280;50538;53.482;10.294;2022-08-02T01:54:35;101461.63;;;11.91;75.75
63901;BME280;50538;53.482;10.294;2022-08-02T02:04:36;101456.84;;;11.77;76.00
63901;BME280;50538;53.482;10.294;2022-08-02T02:14:37;101471.44;;;11.65;77.06
63901;BME280;50538;53.482;10.294;2022-08-02T02:24:38;101470.84;;;11.53;76.57
63901;BME280;50538;53.482;10.294;2022-08-02T02:34:42;101468.94;;;11.46;75.48
63901;BME280;50538;53.482;10.294;2022-08-02T02:44:45;101453.22;;;11.35;76.29
63901;BME280;50538;53.482;10.294;2022-08-02T02:54:47;101448.28;;;11.22;77.32
63901;BME280;50538;53.482;10.294;2022-08-02T03:04:50;101449.97;;;11.05;77.45
63901;BME280;50538;53.482;10.294;2022-08-02T03:14:51;101442.91;;;10.96;76.79
63901;BME280;50538;53.482;10.294;2022-08-02T03:24:51;101435.81;;;10.87;76.95
63901;BME280;50538;53.482;10.294;2022-08-02T03:34:52;101434.72;;;10.80;77.89
63901;BME280;50538;53.482;10.294;2022-08-02T03:44:54;101437.69;;;10.77;78.67
63901;BME280;50538;53.482;10.294;2022-08-02T03:54:55;101448.31;;;10.77;77.99
63901;BME280;50538;53.482;10.294;2022-08-02T04:04:56;101450.53;;;10.81;78.82
63901;BME280;50538;53.482;10.294;2022-08-02T04:14:57;101440.72;;;10.82;81.17
63901;BME280;50538;53.482;10.294;2022-08-02T04:25:00;101449.97;;;10.78;81.22
63901;BME280;50538;53.482;10.294;2022-08-02T04:35:02;101451.91;;;10.85;81.84
63901;BME280;50538;53.482;10.294;2022-08-02T04:45:04;101457.72;;;10.99;83.61
63901;BME280;50538;53.482;10.294;2022-08-02T04:55:05;101475.41;;;11.08;84.55
63901;BME280;50538;53.482;10.294;2022-08-02T05:05:06;101461.50;;;11.14;83.88
63901;BME280;50538;53.482;10.294;2022-08-02T05:15:08;101466.22;;;11.20;82.17
63901;BME280;50538;53.482;10.294;2022-08-02T05:25:09;101453.00;;;11.28;84.23
63901;BME280;50538;53.482;10.294;2022-08-02T05:35:09;101465.75;;;11.68;90.21
63901;BME280;50538;53.482;10.294;2022-08-02T05:45:10;101464.53;;;12.40;93.89
63901;BME280;50538;53.482;10.294;2022-08-02T05:55:17;101471.63;;;13.16;93.48
63901;BME280;50538;53.482;10.294;2022-08-02T06:05:25;101475.97;;;13.90;90.43
63901;BME280;50538;53.482;10.294;2022-08-02T06:15:26;101471.72;;;14.59;87.50
63901;BME280;50538;53.482;10.294;2022-08-02T06:25:28;101455.59;;;15.06;85.91
63901;BME280;50538;53.482;10.294;2022-08-02T06:35:44;101450.47;;;15.65;80.88
63901;BME280;50538;53.482;10.294;2022-08-02T06:45:45;101464.75;;;16.10;78.74
63901;BME280;50538;53.482;10.294;2022-08-02T06:55:45;101456.78;;;16.61;76.31
63901;BME280;50538;53.482;10.294;2022-08-02T07:05:46;101444.06;;;17.05;74.53
63901;BME280;50538;53.482;10.294;2022-08-02T07:15:47;101448.09;;;17.59;71.16
63901;BME280;50538;53.482;10.294;2022-08-02T07:25:48;101438.16;;;18.15;69.77
63901;BME280;50538;53.482;10.294;2022-08-02T07:35:48;101433.44;;;18.58;67.74
63901;BME280;50538;53.482;10.294;2022-08-02T07:45:48;101418.84;;;19.07;66.50
63901;BME280;50538;53.482;10.294;2022-08-02T07:55:49;101426.56;;;19.43;62.57
63901;BME280;50538;53.482;10.294;2022-08-02T08:05:50;101421.28;;;20.14;61.98
63901;BME280;50538;53.482;10.294;2022-08-02T08:15:53;101417.66;;;20.46;60.32
63901;BME280;50538;53.482;10.294;2022-08-02T08:25:53;101402.63;;;20.64;57.87
63901;BME280;50538;53.482;10.294;2022-08-02T08:35:54;101380.44;;;21.25;55.23
63901;BME280;50538;53.482;10.294;2022-08-02T08:45:54;101355.59;;;21.59;55.57
63901;BME280;50538;53.482;10.294;2022-08-02T08:55:55;101367.25;;;22.15;54.33
63901;BME280;50538;53.482;10.294;2022-08-02T09:05:57;101349.50;;;23.08;51.32
63901;BME280;50538;53.482;10.294;2022-08-02T09:16:00;101342.69;;;23.18;51.71
63901;BME280;50538;53.482;10.294;2022-08-02T09:26:03;101353.44;;;23.59;50.53
63901;BME280;50538;53.482;10.294;2022-08-02T09:36:06;101350.72;;;23.71;48.28
63901;BME280;50538;53.482;10.294;2022-08-02T09:46:15;101332.34;;;24.13;49.65
63901;BME280;50538;53.482;10.294;2022-08-02T09:56:17;101316.25;;;24.80;47.14
63901;BME280;50538;53.482;10.294;2022-08-02T10:06:17;101326.84;;;24.82;46.21
63901;BME280;50538;53.482;10.294;2022-08-02T10:16:20;101304.72;;;25.06;46.98
63901;BME280;50538;53.482;10.294;2022-08-02T10:26:24;101315.28;;;25.58;44.12
63901;BME280;50538;53.482;10.294;2022-08-02T10:36:25;101309.38;;;26.05;44.11
63901;BME280;50538;53.482;10.294;2022-08-02T10:56:44;101292.25;;;26.58;40.38
63901;BME280;50538;53.482;10.294;2022-08-02T11:07:17;101276.22;;;26.99;39.43
63901;BME280;50538;53.482;10.294;2022-08-02T11:17:18;101262.81;;;26.92;39.65
63901;BME280;50538;53.482;10.294;2022-08-02T11:27:20;101245.66;;;27.34;38.96
63901;BME280;50538;53.482;10.294;2022-08-02T11:37:31;101247.50;;;27.71;38.83
63901;BME280;50538;53.482;10.294;2022-08-02T11:47:31;101222.72;;;27.97;35.63
63901;BME280;50538;53.482;10.294;2022-08-02T11:57:33;101235.06;;;27.43;35.33
63901;BME280;50538;53.482;10.294;2022-08-02T12:07:35;101230.88;;;27.72;35.68
63901;BME280;50538;53.482;10.294;2022-08-02T12:17:36;101220.97;;;27.61;36.09
63901;BME280;50538;53.482;10.294;2022-08-02T12:28:18;101198.47;;;28.06;38.03
63901;BME280;50538;53.482;10.294;2022-08-02T12:38:21;101194.69;;;28.38;35.90
63901;BME280;50538;53.482;10.294;2022-08-02T12:48:35;101185.13;;;28.45;35.65
63901;BME280;50538;53.482;10.294;2022-08-02T12:58:50;101178.81;;;28.75;35.19
63901;BME280;50538;53.482;10.294;2022-08-02T13:08:51;101155.59;;;28.73;33.91
63901;BME280;50538;53.482;10.294;2022-08-02T13:18:53;101154.00;;;28.41;32.52
63901;BME280;50538;53.482;10.294;2022-08-02T13:28:53;101159.75;;;28.35;34.00
63901;BME280;50538;53.482;10.294;2022-08-02T13:38:54;101164.63;;;28.22;34.59
63901;BME280;50538;53.482;10.294;2022-08-02T13:48:54;101158.59;;;28.10;34.40
63901;BME280;50538;53.482;10.294;2022-08-02T13:58:55;101137.84;;;28.45;34.41
63901;BME280;50538;53.482;10.294;2022-08-02T14:08:55;101139.47;;;28.71;30.31
63901;BME280;50538;53.482;10.294;2022-08-02T14:18:55;101129.06;;;28.68;30.12
63901;BME280;50538;53.482;10.294;2022-08-02T14:28:56;101125.06;;;28.35;32.98
63901;BME280;50538;53.482;10.294;2022-08-02T14:38:56;101122.56;;;28.44;33.35
63901;BME280;50538;53.482;10.294;2022-08-02T14:48:57;101118.72;;;28.45;33.00
63901;BME280;50538;53.482;10.294;2022-08-02T14:59:00;101111.66;;;28.34;33.49
63901;BME280;50538;53.482;10.294;2022-08-02T15:09:01;101101.78;;;28.48;34.82
63901;BME280;50538;53.482;10.294;2022-08-02T15:19:01;101100.41;;;28.60;35.26
63901;BME280;50538;53.482;10.294;2022-08-02T15:29:02;101097.38;;;28.72;35.94
63901;BME280;50538;53.482;10.294;2022-08-02T15:39:03;101078.94;;;29.08;36.15
63901;BME280;50538;53.482;10.294;2022-08-02T15:49:04;101066.69;;;29.55;34.19
63901;BME280;50538;53.482;10.294;2022-08-02T15:59:04;101062.94;;;30.14;34.18
63901;BME280;50538;53.482;10.294;2022-08-02T16:09:05;101066.91;;;30.26;34.52
63901;BME280;50538;53.482;10.294;2022-08-02T16:19:06;101057.78;;;29.24;37.11
63901;BME280;50538;53.482;10.294;2022-08-02T16:29:09;101053.97;;;28.45;40.10
63901;BME280;50538;53.482;10.294;2022-08-02T16:39:10;101059.75;;;28.13;40.67
63901;BME280;50538;53.482;10.294;2022-08-02T16:49:10;101045.28;;;27.87;42.34
63901;BME280;50538;53.482;10.294;2022-08-02T16:59:14;101040.69;;;27.83;45.36
63901;BME280;50538;53.482;10.294;2022-08-02T17:09:14;101033.00;;;27.64;45.36
63901;BME280;50538;53.482;10.294;2022-08-02T17:19:15;101038.41;;;27.39;48.07
63901;BME280;50538;53.482;10.294;2022-08-02T17:29:15;101036.19;;;27.16;47.89
63901;BME280;50538;53.482;10.294;2022-08-02T17:39:15;101026.31;;;26.99;49.56
63901;BME280;50538;53.482;10.294;2022-08-02T17:49:15;101030.91;;;26.94;49.72
63901;BME280;50538;53.482;10.294;2022-08-02T17:59:17;101028.38;;;26.72;50.96
63901;BME280;50538;53.482;10.294;2022-08-02T18:09:18;101018.44;;;26.46;51.97
63901;BME280;50538;53.482;10.294;2022-08-02T18:19:19;101022.88;;;26.20;52.76
63901;BME280;50538;53.482;10.294;2022-08-02T18:29:19;101031.97;;;25.93;53.89
63901;BME280;50538;53.482;10.294;2022-08-02T18:39:19;101030.91;;;25.67;55.42
63901;BME280;50538;53.482;10.294;2022-08-02T18:49:20;101030.09;;;25.40;55.71
63901;BME280;50538;53.482;10.294;2022-08-02T18:59:21;101030.34;;;25.12;56.85
63901;BME280;50538;53.482;10.294;2022-08-02T19:09:22;101032.50;;;24.88;56.69
63901;BME280;50538;53.482;10.294;2022-08-02T19:19:23;101042.28;;;24.67;58.92
63901;BME280;50538;53.482;10.294;2022-08-02T19:29:23;101046.03;;;24.44;59.97
63901;BME280;50538;53.482;10.294;2022-08-02T19:39:23;101044.06;;;24.23;60.06
63901;BME280;50538;53.482;10.294;2022-08-02T19:49:24;101045.63;;;24.02;60.64
63901;BME280;50538;53.482;10.294;2022-08-02T19:59:25;101043.50;;;23.87;60.30
63901;BME280;50538;53.482;10.294;2022-08-02T20:09:25;101050.81;;;23.70;60.29
63901;BME280;50538;53.482;10.294;2022-08-02T20:19:27;101039.94;;;23.53;60.24
63901;BME280;50538;53.482;10.294;2022-08-02T20:29:28;101043.97;;;23.39;61.64
63901;BME280;50538;53.482;10.294;2022-08-02T20:39:28;101046.50;;;23.29;62.65
63901;BME280;50538;53.482;10.294;2022-08-02T20:49:29;101058.47;;;23.16;62.46
63901;BME280;50538;53.482;10.294;2022-08-02T20:59:29;101054.50;;;23.07;63.39
63901;BME280;50538;53.482;10.294;2022-08-02T21:09:32;101049.34;;;22.94;63.88
63901;BME280;50538;53.482;10.294;2022-08-02T21:19:32;101047.97;;;22.80;64.83
63901;BME280;50538;53.482;10.294;2022-08-02T21:29:32;101040.06;;;22.66;64.97
63901;BME280;50538;53.482;10.294;2022-08-02T21:39:33;101034.56;;;22.50;64.14
63901;BME280;50538;53.482;10.294;2022-08-02T21:49:33;101036.34;;;22.32;63.98
63901;BME280;50538;53.482;10.294;2022-08-02T21:59:33;101034.34;;;22.16;65.53
63901;BME280;50538;53.482;10.294;2022-08-02T22:09:34;101035.28;;;21.98;64.89
63901;BME280;50538;53.482;10.294;2022-08-02T22:19:36;101048.41;;;21.83;66.95
63901;BME280;50538;53.482;10.294;2022-08-02T22:29:36;101052.13;;;21.70;67.66
63901;BME280;50538;53.482;10.294;2022-08-02T22:39:36;101056.22;;;21.61;67.83
63901;BME280;50538;53.482;10.294;2022-08-02T22:49:37;101064.63;;;21.53;69.64
63901;BME280;50538;53.482;10.294;2022-08-02T22:59:37;101062.88;;;21.47;70.27
63901;BME280;50538;53.482;10.294;2022-08-02T23:09:37;101070.84;;;21.42;69.35
63901;BME280;50538;53.482;10.294;2022-08-02T23:19:38;101072.59;;;21.36;69.84
63901;BME280;50538;53.482;10.294;2022-08-02T23:29:50;101065.75;;;21.34;72.61
63901;BME280;50538;53.482;10.294;2022-08-02T23:39:50;101051.66;;;21.32;70.66
63901;BME280;50538;53.482;10.294;2022-08-02T23:49:51;101060.00;;;21.30;71.04
63901;BME280;50538;53.482;10.294;2022-08-02T23:59:51;101043.78;;;21.30;70.20
